Nearby METAR Reports

 

KALB - Albany, New York, USA
Distance from station: E 47mi, 75km
Updated: Thu, 30-Mar-2017 7:51pm EDT
Overcast
Overcast
 Wind from calm
Wind: Calm
Temperature: 43°F , 6°C
Dew Point: 19°F , -7°C
Humidity: 39%
Barometer: 30.14 inHg , 1020.7 hPa
Clouds: Overcast
Visibility: 10 miles , 16 km
Cloud details: Overcast 13000 ft
2017/03/30 23:51 KALB 302351Z 00000KT 10SM OVC130 06/M07 A3014 RMK AO2 SLP209 VIRGA ALQDS T00611067 10089 20061 56008
KSLK - Saranac Lake, New York, USA
Distance from station: N 110mi, 177km
Updated: Thu, 30-Mar-2017 7:51pm EDT
Clear
Clear
 Wind from ENE
Wind: ENE 10 mph , 17 km/h
Temperature: 32°F , 0°C
Wind Chill: 24°F , -4°C
Dew Point: 18°F , -8°C
Humidity: 55%
Barometer: 30.09 inHg , 1019 hPa
Clouds: Clear
Visibility: 10 miles , 16 km
2017/03/30 23:51 KSLK 302351Z AUTO 07009KT 10SM CLR 00/M08 A3009 RMK AO2 SLP210 T00001078 10050 20000 55001
 
KSYR - Syracuse, New York, USA
Distance from station: W 73mi, 117km
Updated: Thu, 30-Mar-2017 7:54pm EDT
Light rain, Overcast
Light rain, Overcast
 Wind from E
Wind: E 9 mph , 15 km/h
Temperature: 41°F , 5°C
Wind Chill: 35°F , 2°C
Dew Point: 30°F , -1°C
Humidity: 66%
Barometer: 30.11 inHg , 1019.6 hPa
Summary: Light rain
Clouds: Overcast
Visibility: 10 miles , 16 km
Cloud details: Overcast 3100 ft
2017/03/30 23:54 KSYR 302354Z 09008KT 10SM -RA OVC031 05/M01 A3011 RMK AO2 RAE14B33 SLP195 P0000 60000 T00501011 10083 20050 53006
KBGM - Binghamton, New York, USA
Distance from station: SW 78mi, 126km
Updated: Thu, 30-Mar-2017 7:53pm EDT
Light rain, Overcast
Light rain, Overcast
 Wind from SSE
Wind: SSE 7 mph , 11 km/h
Temperature: 36°F , 2°C
Wind Chill: 30°F , -1°C
Dew Point: 34°F , 1°C
Humidity: 93%
Barometer: 30.04 inHg , 1017.3 hPa
Summary: Light rain
Clouds: Overcast
Visibility: 10 miles , 16 km
Cloud details: Partly cloudy 4100 ft
Overcast 5500 ft
2017/03/30 23:53 KBGM 302353Z 16006KT 10SM -RA SCT041 OVC055 02/01 A3004 RMK AO2 SLP189 P0002 60002 T00170006 10056 20017 55000
 
KRME - Rome, New York, USA
Distance from station: WNW 43mi, 69km
Updated: Thu, 30-Mar-2017 7:53pm EDT
Overcast
Overcast
 Wind from E
Wind: E 7 mph , 11 km/h
Temperature: 41°F , 5°C
Wind Chill: 36°F , 2°C
Dew Point: 23°F , -5°C
Humidity: 49%
Barometer: 30.11 inHg , 1019.6 hPa
Clouds: Overcast
Visibility: 10 miles , 16 km
Cloud details: Mostly cloudy 7000 ft
Overcast 9000 ft
2017/03/30 23:53 KRME 302353Z 10006KT 10SM BKN070 OVC090 05/M05 A3011 RMK AO2 SLP201 T00501050 10072 20050 55004
KJFK - New York, New York, USA
Distance from station: SSE 159mi, 256km
Updated: Thu, 30-Mar-2017 7:51pm EDT
Light rain, Overcast
Light rain, Overcast
 Wind from SSW
Wind: SSW 16 mph , 26 km/h
Temperature: 43°F , 6°C
Wind Chill: 35°F , 2°C
Dew Point: 30°F , -1°C
Humidity: 61%
Barometer: 30.17 inHg , 1021.7 hPa
Summary: Light rain
Clouds: Overcast
Visibility: 10 miles , 16 km
Cloud details: Overcast 8000 ft
2017/03/30 23:51 KJFK 302351Z 21014KT 10SM -RA OVC080 06/M01 A3017 RMK AO2 RAB35 SLP216 P0000 60000 T00611006 10089 20061 53002
 
KROC - Rochester, New York, USA
Distance from station: W 150mi, 242km
Updated: Thu, 30-Mar-2017 7:54pm EDT
Light rain, Overcast
Light rain, Overcast
 Wind from ESE
Wind: ESE 10 mph , 17 km/h
Temperature: 37°F , 3°C
Wind Chill: 30°F , -1°C
Dew Point: 34°F , 1°C
Humidity: 87%
Barometer: 30.02 inHg , 1016.6 hPa
Summary: Light rain
Clouds: Overcast
Visibility: 9 miles , 14 km
Cloud details: Few Clouds 5500 ft
Mostly cloudy 7000 ft
Overcast 8500 ft
2017/03/30 23:54 KROC 302354Z 11009KT 9SM -RA FEW055 BKN070 OVC085 03/01 A3002 RMK AO2 SNE46 SLP175 P0001 60002 T00330011 10061 20028 58016 $
KART - Watertown, New York, USA
Distance from station: NNW 103mi, 166km
Updated: Thu, 30-Mar-2017 7:56pm EDT
Overcast
Overcast
 Wind from ENE
Wind: ENE 10 mph , 17 km/h
Temperature: 39°F , 4°C
Wind Chill: 32°F , 0°C
Dew Point: 25°F , -4°C
Humidity: 56%
Barometer: 30.10 inHg , 1019.3 hPa
Clouds: Overcast
Visibility: 10 miles , 16 km
Cloud details: Overcast 11000 ft
2017/03/30 23:56 KART 302356Z AUTO 06009KT 10SM OVC110 04/M04 A3010 RMK AO2 SLP198 T00391039 10067 20039 56004 $
 
KELM - Elmira-Corning, New York, USA
Distance from station: SSW 121mi, 195km
Updated: Thu, 30-Mar-2017 7:53pm EDT
Light rain, Mist, Overcast
Light rain, Mist, Overcast
 Wind from NE
Wind: NE 7 mph , 11 km/h
Temperature: 37°F , 3°C
Wind Chill: 32°F , 0°C
Dew Point: 34°F , 1°C
Humidity: 87%
Barometer: 30.04 inHg , 1017.3 hPa
Summary: Light rain, Mist
Clouds: Overcast
Visibility: 3 miles , 5 km
Cloud details: Few Clouds 900 ft
Mostly cloudy 5000 ft
Overcast 5500 ft
2017/03/30 23:53 KELM 302353Z 04006KT 3SM -RA BR FEW009 BKN050 OVC055 03/01 A3004 RMK AO2 SLP180 P0001 60009 T00280006 10067 20011 56017
KJHW - Jamestown, New York, USA
Distance from station: SW 238mi, 383km
Updated: Thu, 30-Mar-2017 8:15pm EDT
Overcast
Overcast
 Wind from SE
Wind: SE 13 mph , 20 km/h
Temperature: 36°F , 2°C
Wind Chill: 27°F , -3°C
Dew Point: 30°F , -1°C
Humidity: 81%
Barometer: 29.87 inHg , 1011.5 hPa
Clouds: Overcast
Visibility: 10 miles , 16 km
Cloud details: Mostly cloudy 3400 ft
Mostly cloudy 5500 ft
Overcast 7000 ft
2017/03/31 00:15 KJHW 310015Z AUTO 14011KT 10SM BKN034 BKN055 OVC070 02/M01 A2987 RMK AO1 P0011
 
KMSS - Massena, New York, USA
Distance from station: N 141mi, 232km
Updated: Thu, 30-Mar-2017 7:53pm EDT
Clear
Clear
 Wind from NE
Wind: NE 8 mph , 13 km/h
Temperature: 37°F , 3°C
Wind Chill: 31°F , -1°C
Dew Point: 21°F , -6°C
Humidity: 52%
Barometer: 30.17 inHg , 1021.7 hPa
Clouds: Clear
Visibility: 10 miles , 16 km
2017/03/30 23:53 KMSS 302353Z AUTO 05007KT 10SM CLR 03/M06 A3017 RMK AO2 SLP222 T00281056 10044 20028 56013 $
KBUF - Buffalo, New York, USA
Distance from station: W 204mi, 328km
Updated: Thu, 30-Mar-2017 8:18pm EDT
Light rain, Mist, Overcast
Light rain, Mist, Overcast
 Wind from ENE
Wind: ENE 14 mph , 22 km/h
Temperature: 37°F , 3°C
Wind Chill: 28°F , -2°C
Dew Point: 34°F , 1°C
Humidity: 87%
Barometer: 29.96 inHg , 1014.6 hPa
Summary: Light rain, Mist
Clouds: Overcast
Visibility: 5 miles , 8 km
Cloud details: Few Clouds 2000 ft
Mostly cloudy 2700 ft
Overcast 7000 ft
2017/03/31 00:18 KBUF 310018Z 07012KT 5SM -RA BR FEW020 BKN027 OVC070 03/01 A2996 RMK AO2 P0006 T00330011